createdAt,value
2023-02-24T00:01:24.776Z,7.00
2023-02-24T00:03:56.801Z,7.00
2023-02-24T00:06:24.356Z,7.00
2023-02-24T00:08:51.038Z,7.10
2023-02-24T00:11:18.816Z,7.10
2023-02-24T00:13:47.122Z,7.10
2023-02-24T00:16:17.279Z,7.00
2023-02-24T00:18:44.509Z,7.10
2023-02-24T00:21:14.223Z,7.10
2023-02-24T00:23:41.852Z,7.10
2023-02-24T00:26:09.833Z,7.10
2023-02-24T00:28:36.785Z,7.00
2023-02-24T00:31:07.582Z,7.10
2023-02-24T00:33:34.465Z,7.00
2023-02-24T00:36:15.300Z,6.70
2023-02-24T00:38:46.966Z,6.50
2023-02-24T00:41:15.615Z,6.30
2023-02-24T00:43:46.690Z,6.10
2023-02-24T00:46:17.362Z,5.90
2023-02-24T00:48:47.707Z,5.80
2023-02-24T00:51:16.650Z,5.80
2023-02-24T00:53:43.933Z,5.70
2023-02-24T00:56:13.783Z,5.60
2023-02-24T00:58:40.534Z,5.60
2023-02-24T01:01:14.455Z,5.50
2023-02-24T01:03:42.140Z,5.50
2023-02-24T01:06:09.181Z,5.50
2023-02-24T01:08:40.404Z,5.50
2023-02-24T01:11:25.392Z,5.50
2023-02-24T01:13:52.016Z,5.50
2023-02-24T01:16:18.759Z,5.50
2023-02-24T01:18:47.818Z,5.50
2023-02-24T01:21:18.323Z,5.60
2023-02-24T01:23:48.936Z,5.60
2023-02-24T01:26:15.765Z,5.60
2023-02-24T01:28:43.113Z,5.60
2023-02-24T01:31:09.886Z,5.70
2023-02-24T01:33:39.334Z,5.70
2023-02-24T01:36:13.946Z,5.70
2023-02-24T01:38:42.919Z,5.70
2023-02-24T01:41:11.446Z,5.70
2023-02-24T01:44:02.312Z,5.60
2023-02-24T01:46:30.709Z,5.60
2023-02-24T01:49:11.108Z,5.60
2023-02-24T01:51:45.992Z,5.60
2023-02-24T01:54:14.209Z,5.60
2023-02-24T01:56:41.324Z,5.50
2023-02-24T01:59:08.371Z,5.50
2023-02-24T02:01:40.589Z,5.50
2023-02-24T02:04:26.399Z,5.50
2023-02-24T02:06:53.175Z,5.50
2023-02-24T02:09:19.788Z,5.50
2023-02-24T02:11:49.112Z,5.50
2023-02-24T02:14:16.857Z,5.50
2023-02-24T02:17:21.106Z,5.50
2023-02-24T02:20:28.643Z,5.40
2023-02-24T02:23:20.637Z,5.40
2023-02-24T02:26:35.921Z,5.40
2023-02-24T02:29:15.460Z,5.40
2023-02-24T02:32:07.913Z,5.40
2023-02-24T02:34:46.748Z,5.40
2023-02-24T02:37:34.620Z,5.40
2023-02-24T02:40:21.052Z,5.30
2023-02-24T02:42:52.421Z,5.30
2023-02-24T02:45:31.174Z,5.30
2023-02-24T02:48:01.727Z,5.30
2023-02-24T02:50:31.161Z,5.20
2023-02-24T02:53:09.109Z,5.20
2023-02-24T02:55:42.879Z,5.20
2023-02-24T02:58:15.509Z,5.20
2023-02-24T03:00:58.738Z,5.10
2023-02-24T03:03:28.027Z,5.20
2023-02-24T03:06:06.706Z,5.10
2023-02-24T03:08:37.271Z,5.10
2023-02-24T03:11:05.568Z,5.10
2023-02-24T03:13:34.635Z,5.10
2023-02-24T03:16:01.773Z,5.10
2023-02-24T03:18:30.999Z,5.10
2023-02-24T03:21:07.696Z,5.10
2023-02-24T03:23:51.286Z,5.00
2023-02-24T03:26:59.794Z,5.00
2023-02-24T03:29:39.828Z,5.10
2023-02-24T03:32:18.240Z,5.10
2023-02-24T03:34:56.995Z,5.10
2023-02-24T03:37:28.296Z,5.20
2023-02-24T03:39:56.578Z,5.20
2023-02-24T03:42:23.522Z,5.10
2023-02-24T03:44:50.154Z,5.10
2023-02-24T03:47:17.543Z,5.10
2023-02-24T03:49:44.190Z,5.10
2023-02-24T03:52:32.417Z,5.10
2023-02-24T03:55:21.460Z,5.10
2023-02-24T03:58:00.874Z,5.00
2023-02-24T04:00:34.214Z,5.00
2023-02-24T04:03:25.477Z,5.10
2023-02-24T04:05:59.014Z,5.00
2023-02-24T04:08:26.011Z,5.00
2023-02-24T04:11:05.215Z,5.00
2023-02-24T04:13:36.047Z,5.00
2023-02-24T04:16:28.073Z,5.00
2023-02-24T04:19:04.175Z,5.00
2023-02-24T04:21:31.374Z,5.00
2023-02-24T04:23:59.942Z,5.00
2023-02-24T04:26:26.676Z,5.00
2023-02-24T04:28:53.835Z,5.00
2023-02-24T04:31:21.126Z,5.00
2023-02-24T04:33:50.446Z,5.00
2023-02-24T04:36:18.241Z,5.00
2023-02-24T04:38:45.971Z,5.00
2023-02-24T04:41:17.884Z,5.00
2023-02-24T04:43:45.130Z,5.00
2023-02-24T04:46:13.598Z,4.90
2023-02-24T04:48:40.247Z,4.80
2023-02-24T04:51:06.917Z,4.80
2023-02-24T04:53:33.541Z,4.80
2023-02-24T04:56:08.118Z,4.80
2023-02-24T04:58:36.321Z,4.80
2023-02-24T05:01:08.589Z,4.90
2023-02-24T05:03:36.058Z,4.80
2023-02-24T05:06:02.781Z,4.80
2023-02-24T05:08:30.048Z,4.80
2023-02-24T05:10:58.658Z,4.80
2023-02-24T05:13:27.885Z,4.80
2023-02-24T05:16:14.515Z,4.80
2023-02-24T05:18:42.670Z,4.80
2023-02-24T05:21:30.441Z,4.80
2023-02-24T05:23:59.390Z,4.70
2023-02-24T05:26:26.482Z,4.70
2023-02-24T05:28:54.839Z,4.60
2023-02-24T05:31:24.163Z,4.60
2023-02-24T05:33:57.873Z,4.60
2023-02-24T05:36:25.736Z,4.60
2023-02-24T05:39:14.183Z,4.60
2023-02-24T05:41:42.341Z,4.60
2023-02-24T05:44:12.320Z,4.60
2023-02-24T05:46:40.743Z,4.60
2023-02-24T05:49:15.731Z,4.70
2023-02-24T05:51:54.693Z,4.70
2023-02-24T05:54:32.549Z,4.70
2023-02-24T05:57:11.900Z,4.70
2023-02-24T05:59:43.060Z,4.60
2023-02-24T06:02:14.025Z,4.60
2023-02-24T06:04:51.751Z,4.50
2023-02-24T06:07:19.896Z,4.50
2023-02-24T06:09:50.267Z,4.50
2023-02-24T06:12:18.249Z,4.60
2023-02-24T06:14:47.546Z,4.60
2023-02-24T06:17:17.136Z,4.60
2023-02-24T06:19:44.929Z,4.50
2023-02-24T06:22:15.560Z,4.60
2023-02-24T06:24:44.754Z,4.60
2023-02-24T06:27:17.911Z,4.60
2023-02-24T06:29:45.670Z,4.60
2023-02-24T06:32:13.084Z,4.60
2023-02-24T06:34:40.261Z,4.60
2023-02-24T06:37:07.422Z,4.70
2023-02-24T06:39:36.705Z,4.80
2023-02-24T06:42:08.893Z,4.90
2023-02-24T06:44:38.380Z,5.00
2023-02-24T06:47:05.717Z,5.00
2023-02-24T06:49:33.027Z,5.00
2023-02-24T06:52:00.252Z,5.10
2023-02-24T06:54:30.707Z,5.00
2023-02-24T06:56:58.666Z,5.00
2023-02-24T06:59:28.607Z,4.90
2023-02-24T07:01:56.078Z,4.70
2023-02-24T07:04:27.782Z,4.60
2023-02-24T07:07:02.984Z,4.50
2023-02-24T07:09:30.925Z,4.50
2023-02-24T07:11:58.761Z,4.50
2023-02-24T07:14:27.052Z,4.50
2023-02-24T07:16:58.442Z,4.60
2023-02-24T07:19:27.568Z,4.50
2023-02-24T07:22:01.904Z,4.60
2023-02-24T07:24:33.578Z,4.60
2023-02-24T07:27:05.504Z,4.70
2023-02-24T07:29:32.524Z,4.70
2023-02-24T07:32:01.586Z,4.80
2023-02-24T07:34:28.843Z,4.80
2023-02-24T07:36:56.079Z,4.90
2023-02-24T07:39:25.643Z,4.90
2023-02-24T07:41:54.963Z,5.00
2023-02-24T07:44:23.021Z,5.00
2023-02-24T07:46:49.722Z,4.90
2023-02-24T07:49:19.755Z,4.90
2023-02-24T07:51:52.223Z,4.90
2023-02-24T07:54:21.086Z,5.00
2023-02-24T07:56:56.173Z,5.00
2023-02-24T07:59:24.518Z,5.00
2023-02-24T08:01:51.890Z,5.00
2023-02-24T08:04:20.451Z,5.10
2023-02-24T08:06:50.291Z,5.20
2023-02-24T08:09:18.715Z,5.20
2023-02-24T08:11:52.624Z,5.20
2023-02-24T08:14:26.975Z,5.20
2023-02-24T08:16:59.305Z,5.30
2023-02-24T08:19:32.933Z,5.30
2023-02-24T08:22:20.905Z,5.50
2023-02-24T08:25:00.693Z,5.60
2023-02-24T08:27:31.623Z,5.80
2023-02-24T08:29:59.756Z,6.00
2023-02-24T08:32:44.006Z,6.10
2023-02-24T08:35:15.318Z,6.10
2023-02-24T08:37:48.813Z,6.30
2023-02-24T08:40:32.419Z,6.40
2023-02-24T08:42:59.969Z,6.50
2023-02-24T08:45:28.880Z,6.50
2023-02-24T08:48:00.581Z,6.60
2023-02-24T08:50:33.920Z,6.70
2023-02-24T08:53:03.239Z,6.90
2023-02-24T08:55:33.007Z,6.90
2023-02-24T08:58:02.837Z,6.80
2023-02-24T09:00:49.152Z,6.80
2023-02-24T09:03:33.458Z,6.70
2023-02-24T09:06:05.508Z,6.70
2023-02-24T09:08:33.277Z,6.60
2023-02-24T09:11:01.434Z,6.50
2023-02-24T09:13:32.952Z,6.50
2023-02-24T09:16:01.158Z,6.40
2023-02-24T09:18:38.349Z,6.30
2023-02-24T09:21:37.389Z,6.20
2023-02-24T09:24:07.356Z,6.10
2023-02-24T09:26:43.279Z,6.10
2023-02-24T09:29:32.069Z,6.20
2023-02-24T09:32:04.712Z,6.20
2023-02-24T09:34:43.940Z,6.30
2023-02-24T09:37:24.828Z,6.40
2023-02-24T09:39:58.291Z,6.40
2023-02-24T09:42:27.490Z,6.30
2023-02-24T09:45:01.690Z,6.40
2023-02-24T09:47:56.551Z,6.50
2023-02-24T09:50:51.250Z,6.60
2023-02-24T09:53:14.344Z,6.70
2023-02-24T09:56:42.319Z,6.60
2023-02-24T09:59:51.118Z,6.50
2023-02-24T10:02:34.274Z,6.60
2023-02-24T10:05:07.233Z,6.40
2023-02-24T10:07:40.564Z,6.20
2023-02-24T10:10:20.254Z,6.10
2023-02-24T10:12:52.821Z,6.10
2023-02-24T10:15:57.020Z,5.90
2023-02-24T10:18:48.694Z,5.90
2023-02-24T10:21:30.836Z,5.90
2023-02-24T10:24:19.356Z,5.90
2023-02-24T10:27:08.696Z,6.00
2023-02-24T10:29:55.911Z,5.90
2023-02-24T10:33:02.262Z,6.00
2023-02-24T10:35:33.604Z,5.90
2023-02-24T10:38:07.158Z,5.90
2023-02-24T10:40:47.039Z,6.00
2023-02-24T10:43:29.921Z,6.00
2023-02-24T10:46:06.472Z,5.90
2023-02-24T10:48:41.622Z,5.80
2023-02-24T10:51:30.371Z,5.80
2023-02-24T10:54:22.441Z,5.70
2023-02-24T10:57:00.695Z,5.80
2023-02-24T10:59:58.274Z,5.80
2023-02-24T11:02:48.775Z,5.70
2023-02-24T11:05:38.365Z,5.60
2023-02-24T11:08:26.160Z,5.50
2023-02-24T11:10:58.627Z,5.50
2023-02-24T11:13:43.854Z,5.50
2023-02-24T11:16:28.907Z,5.50
2023-02-24T11:18:55.837Z,5.50
2023-02-24T11:21:26.415Z,5.50
2023-02-24T11:23:57.370Z,5.50
2023-02-24T11:26:42.252Z,5.40
2023-02-24T11:29:39.173Z,5.50
2023-02-24T11:32:30.616Z,5.40
2023-02-24T11:35:09.482Z,5.40
2023-02-24T11:37:43.169Z,5.40
2023-02-24T11:40:23.786Z,5.30
2023-02-24T11:42:56.498Z,5.20
2023-02-24T11:45:37.914Z,5.20
2023-02-24T11:48:06.135Z,5.20
2023-02-24T11:50:36.938Z,5.20
2023-02-24T11:53:10.024Z,5.20
2023-02-24T11:55:52.869Z,5.20
2023-02-24T11:58:38.250Z,5.10
2023-02-24T12:01:20.290Z,5.00
2023-02-24T12:03:59.751Z,5.00
2023-02-24T12:06:51.240Z,5.00
2023-02-24T12:09:20.063Z,4.90
2023-02-24T12:12:15.107Z,4.90
2023-02-24T12:15:03.789Z,4.80
2023-02-24T12:17:48.456Z,4.80
2023-02-24T12:20:36.243Z,4.90
2023-02-24T12:23:15.786Z,4.80
2023-02-24T12:26:09.884Z,4.90
2023-02-24T12:28:53.161Z,4.80
2023-02-24T12:31:29.731Z,4.80
2023-02-24T12:34:11.966Z,4.80
2023-02-24T12:36:59.884Z,4.70
2023-02-24T12:39:31.804Z,4.60
2023-02-24T12:42:01.437Z,4.50
2023-02-24T12:44:41.549Z,4.60
2023-02-24T12:47:33.436Z,4.50
2023-02-24T12:50:11.861Z,4.40
2023-02-24T12:52:47.368Z,4.40
2023-02-24T12:55:36.988Z,4.40
2023-02-24T12:58:14.076Z,4.40
2023-02-24T13:00:47.483Z,4.40
2023-02-24T13:03:55.657Z,4.30
2023-02-24T13:06:38.193Z,4.30
2023-02-24T13:09:26.863Z,4.30
2023-02-24T13:12:04.888Z,4.30
2023-02-24T13:14:32.034Z,4.30
2023-02-24T13:17:11.044Z,4.30
2023-02-24T13:19:38.643Z,4.50
2023-02-24T13:22:14.536Z,4.40
2023-02-24T13:25:02.826Z,4.40
2023-02-24T13:27:30.616Z,4.40
2023-02-24T13:29:58.748Z,4.40
2023-02-24T13:32:39.542Z,4.40
2023-02-24T13:35:15.558Z,4.30
2023-02-24T13:37:43.950Z,4.30
2023-02-24T13:40:16.812Z,4.30
2023-02-24T13:42:45.082Z,4.30
2023-02-24T13:45:13.443Z,4.30
2023-02-24T13:47:59.353Z,4.30
2023-02-24T13:50:36.323Z,4.40
2023-02-24T13:53:13.748Z,4.30
2023-02-24T13:56:02.155Z,4.30
2023-02-24T13:59:11.068Z,4.20
2023-02-24T14:01:57.986Z,4.30
2023-02-24T14:04:29.323Z,4.20
2023-02-24T14:07:01.694Z,4.10
2023-02-24T14:09:59.115Z,4.10
2023-02-24T14:12:27.715Z,4.20
2023-02-24T14:14:54.855Z,4.20
2023-02-24T14:17:26.245Z,4.10
2023-02-24T14:19:52.914Z,4.00
2023-02-24T14:22:20.546Z,4.00
2023-02-24T14:24:47.273Z,4.00
2023-02-24T14:27:25.792Z,4.00
2023-02-24T14:29:52.750Z,3.90
2023-02-24T14:32:22.499Z,3.90
2023-02-24T14:34:49.368Z,3.80
2023-02-24T14:37:17.326Z,3.80
2023-02-24T14:39:56.244Z,3.80
2023-02-24T14:42:22.913Z,3.80
2023-02-24T14:44:54.059Z,3.80
2023-02-24T14:47:22.843Z,3.80
2023-02-24T14:49:56.766Z,3.70
2023-02-24T14:52:42.723Z,3.60
2023-02-24T14:55:24.103Z,3.60
2023-02-24T14:58:02.755Z,3.60
2023-02-24T15:00:32.625Z,3.60
2023-02-24T15:03:07.584Z,3.60
2023-02-24T15:05:34.242Z,3.60
2023-02-24T15:08:01.793Z,3.60
2023-02-24T15:10:30.087Z,3.60
2023-02-24T15:13:11.394Z,3.60
2023-02-24T15:15:39.168Z,3.60
2023-02-24T15:18:26.013Z,3.50
2023-02-24T15:21:06.000Z,3.50
2023-02-24T15:23:36.894Z,3.50
2023-02-24T15:26:05.628Z,3.50
2023-02-24T15:28:33.945Z,3.50
2023-02-24T15:31:17.928Z,3.50
2023-02-24T15:33:46.425Z,3.50
2023-02-24T15:36:20.072Z,3.50
2023-02-24T15:38:46.857Z,3.50
2023-02-24T15:41:15.905Z,3.50
2023-02-24T15:43:50.390Z,3.40
2023-02-24T15:46:30.416Z,3.50
2023-02-24T15:48:58.384Z,3.50
2023-02-24T15:51:41.540Z,3.50
2023-02-24T15:54:12.844Z,3.50
2023-02-24T15:56:39.524Z,3.50
2023-02-24T15:59:06.275Z,3.50
2023-02-24T16:01:32.986Z,3.50
2023-02-24T16:04:00.854Z,3.60
2023-02-24T16:06:28.647Z,3.70
2023-02-24T16:08:55.751Z,3.70
2023-02-24T16:11:25.307Z,3.70
2023-02-24T16:13:54.811Z,3.90
2023-02-24T16:16:21.855Z,3.80
2023-02-24T16:18:48.695Z,3.90
2023-02-24T16:21:15.428Z,3.90
2023-02-24T16:23:42.042Z,3.90
2023-02-24T16:26:16.796Z,3.90
2023-02-24T16:28:52.491Z,3.90
2023-02-24T16:31:19.405Z,3.90
2023-02-24T16:33:54.551Z,4.00
2023-02-24T16:36:23.690Z,4.00
2023-02-24T16:38:51.584Z,4.10
2023-02-24T16:41:18.259Z,4.10
2023-02-24T16:43:44.866Z,4.10
2023-02-24T16:46:15.738Z,4.10
2023-02-24T16:48:42.907Z,4.10
2023-02-24T16:51:10.093Z,4.10
2023-02-24T16:53:36.876Z,4.10
2023-02-24T16:56:04.791Z,4.10
2023-02-24T16:58:31.635Z,4.10
2023-02-24T17:01:00.284Z,4.10
2023-02-24T17:03:29.172Z,4.10
2023-02-24T17:05:55.907Z,4.20
2023-02-24T17:08:23.012Z,4.20
2023-02-24T17:10:49.831Z,4.20
2023-02-24T17:13:18.656Z,4.20
2023-02-24T17:15:45.363Z,4.20
2023-02-24T17:18:12.088Z,4.20
2023-02-24T17:20:40.048Z,4.10
2023-02-24T17:23:06.798Z,4.10
2023-02-24T17:25:33.735Z,4.10
2023-02-24T17:28:00.434Z,4.10
2023-02-24T17:30:29.433Z,4.20
2023-02-24T17:32:56.281Z,4.20
2023-02-24T17:35:23.290Z,4.20
2023-02-24T17:37:50.781Z,4.20
2023-02-24T17:40:17.592Z,4.20
2023-02-24T17:42:44.215Z,4.30
2023-02-24T17:45:11.607Z,4.20
2023-02-24T17:47:38.408Z,4.20
2023-02-24T17:50:05.583Z,4.20
2023-02-24T17:52:32.649Z,4.20
2023-02-24T17:54:59.496Z,4.20
2023-02-24T17:57:27.699Z,4.20
2023-02-24T17:59:54.384Z,4.20
2023-02-24T18:02:21.152Z,4.20
2023-02-24T18:04:49.834Z,4.10
2023-02-24T18:07:17.154Z,4.20
2023-02-24T18:09:43.765Z,4.30
2023-02-24T18:12:10.367Z,4.30
2023-02-24T18:14:36.964Z,4.30
2023-02-24T18:17:03.579Z,4.40
2023-02-24T18:19:30.555Z,4.40
2023-02-24T18:21:57.290Z,4.40
2023-02-24T18:24:23.893Z,4.40
2023-02-24T18:26:50.778Z,4.50
2023-02-24T18:29:17.532Z,4.50
2023-02-24T18:31:44.499Z,4.50
2023-02-24T18:34:11.205Z,4.50
2023-02-24T18:36:41.143Z,4.50
2023-02-24T18:39:12.765Z,4.50
2023-02-24T18:41:39.409Z,4.60
2023-02-24T18:44:06.167Z,4.60
2023-02-24T18:46:32.879Z,4.60
2023-02-24T18:48:59.796Z,4.60
2023-02-24T18:51:26.683Z,4.60
2023-02-24T18:53:53.905Z,4.60
2023-02-24T18:56:22.842Z,4.60
2023-02-24T18:58:51.368Z,4.60
2023-02-24T19:01:29.064Z,4.60
2023-02-24T19:03:56.151Z,4.70
2023-02-24T19:06:23.771Z,4.70
2023-02-24T19:08:55.056Z,4.70
2023-02-24T19:11:21.674Z,4.70
2023-02-24T19:13:48.554Z,4.70
2023-02-24T19:16:15.838Z,4.70
2023-02-24T19:18:42.843Z,4.70
2023-02-24T19:21:09.670Z,4.70
2023-02-24T19:23:36.700Z,4.60
2023-02-24T19:26:03.971Z,4.50
2023-02-24T19:28:30.689Z,4.40
2023-02-24T19:30:57.549Z,4.40
2023-02-24T19:33:24.240Z,4.30
2023-02-24T19:35:53.181Z,4.30
2023-02-24T19:38:22.041Z,4.30
2023-02-24T19:40:48.723Z,4.20
2023-02-24T19:43:15.336Z,4.20
2023-02-24T19:45:42.561Z,4.20
2023-02-24T19:48:10.038Z,4.20
2023-02-24T19:50:39.842Z,4.10
2023-02-24T19:53:06.488Z,4.10
2023-02-24T19:55:33.181Z,4.10
2023-02-24T19:58:00.106Z,4.00
2023-02-24T20:00:26.784Z,4.10
2023-02-24T20:02:53.442Z,4.00
2023-02-24T20:05:20.092Z,4.00
2023-02-24T20:07:46.988Z,4.00
2023-02-24T20:10:15.504Z,4.00
2023-02-24T20:12:42.216Z,4.10
2023-02-24T20:15:09.481Z,4.00
2023-02-24T20:17:36.424Z,4.00
2023-02-24T20:20:03.451Z,4.00
2023-02-24T20:22:30.114Z,4.00
2023-02-24T20:24:56.968Z,4.00
2023-02-24T20:27:23.746Z,4.00
2023-02-24T20:29:53.096Z,4.10
2023-02-24T20:32:20.497Z,4.00
2023-02-24T20:34:47.170Z,4.00
2023-02-24T20:37:14.100Z,4.10
2023-02-24T20:39:40.758Z,4.00
2023-02-24T20:42:07.491Z,4.10
2023-02-24T20:44:34.158Z,4.10
2023-02-24T20:47:00.842Z,4.10
2023-02-24T20:49:27.446Z,4.10
2023-02-24T20:51:54.072Z,4.20
2023-02-24T20:54:20.737Z,4.20
2023-02-24T20:56:48.067Z,4.20
2023-02-24T20:59:16.558Z,4.20
2023-02-24T21:01:46.471Z,4.20
2023-02-24T21:04:14.407Z,4.10
2023-02-24T21:06:41.418Z,4.00
2023-02-24T21:09:08.106Z,3.90
2023-02-24T21:11:34.870Z,3.80
2023-02-24T21:14:01.604Z,3.70
2023-02-24T21:16:28.324Z,3.60
2023-02-24T21:18:56.283Z,3.60
2023-02-24T21:21:23.058Z,3.60
2023-02-24T21:23:50.371Z,3.50
2023-02-24T21:26:17.193Z,3.50
2023-02-24T21:28:43.849Z,3.50
2023-02-24T21:31:11.860Z,3.50
2023-02-24T21:33:38.671Z,3.40
2023-02-24T21:36:06.947Z,3.40
2023-02-24T21:38:34.130Z,3.40
2023-02-24T21:41:01.810Z,3.40
2023-02-24T21:43:28.684Z,3.50
2023-02-24T21:45:55.753Z,3.60
2023-02-24T21:48:22.364Z,3.60
2023-02-24T21:51:06.089Z,3.60
2023-02-24T21:53:35.249Z,3.60
2023-02-24T21:56:11.050Z,3.50
2023-02-24T21:58:38.947Z,3.60
2023-02-24T22:01:10.420Z,3.60
2023-02-24T22:03:37.854Z,3.60
2023-02-24T22:06:05.064Z,3.60
2023-02-24T22:08:31.927Z,3.70
2023-02-24T22:10:59.752Z,3.60
2023-02-24T22:13:26.769Z,3.70
2023-02-24T22:15:53.532Z,3.70
2023-02-24T22:18:21.262Z,3.70
2023-02-24T22:20:47.985Z,3.70
2023-02-24T22:23:15.645Z,3.80
2023-02-24T22:25:42.509Z,3.80
2023-02-24T22:28:09.146Z,3.80
2023-02-24T22:30:36.051Z,3.90
2023-02-24T22:33:02.676Z,3.90
2023-02-24T22:35:29.416Z,3.90
2023-02-24T22:37:56.094Z,3.90
2023-02-24T22:40:22.715Z,3.90
2023-02-24T22:42:49.551Z,3.90
2023-02-24T22:45:16.254Z,3.90
2023-02-24T22:47:43.221Z,3.90
2023-02-24T22:50:10.909Z,4.00
2023-02-24T22:52:38.629Z,4.00
2023-02-24T22:55:05.518Z,4.00
2023-02-24T22:57:33.960Z,4.00
2023-02-24T23:00:00.798Z,4.00
2023-02-24T23:02:27.524Z,4.00
2023-02-24T23:04:54.128Z,4.00
2023-02-24T23:07:20.751Z,4.00
2023-02-24T23:09:52.739Z,4.00
2023-02-24T23:12:20.426Z,4.00
2023-02-24T23:14:47.043Z,4.00
2023-02-24T23:17:13.673Z,4.00
2023-02-24T23:19:40.264Z,4.00
2023-02-24T23:22:07.927Z,4.00
2023-02-24T23:24:34.535Z,4.10
2023-02-24T23:27:01.195Z,4.10
2023-02-24T23:29:28.135Z,4.00
2023-02-24T23:31:54.932Z,4.00
2023-02-24T23:34:21.657Z,4.00
2023-02-24T23:36:48.403Z,4.00
2023-02-24T23:39:18.250Z,4.00
2023-02-24T23:41:44.912Z,4.00
2023-02-24T23:44:12.330Z,4.00
2023-02-24T23:46:38.997Z,4.00
2023-02-24T23:49:05.700Z,4.00
2023-02-24T23:51:47.225Z,4.00
2023-02-24T23:54:15.315Z,4.00
2023-02-24T23:56:41.934Z,4.00
2023-02-24T23:59:08.671Z,4.00
